createdAt,value
2022-09-30T00:01:36.484Z,89.73
2022-09-30T00:04:03.518Z,89.51
2022-09-30T00:06:35.259Z,89.93
2022-09-30T00:09:02.383Z,90.01
2022-09-30T00:11:31.314Z,89.95
2022-09-30T00:13:58.418Z,90.15
2022-09-30T00:16:27.585Z,89.96
2022-09-30T00:18:55.910Z,90.24
2022-09-30T00:21:25.299Z,90.48
2022-09-30T00:23:52.008Z,90.66
2022-09-30T00:26:21.210Z,90.91
2022-09-30T00:28:55.975Z,90.46
2022-09-30T00:31:27.344Z,89.82
2022-09-30T00:34:11.516Z,90.21
2022-09-30T00:36:49.024Z,90.40
2022-09-30T00:39:22.655Z,90.48
2022-09-30T00:41:58.404Z,90.87
2022-09-30T00:44:44.248Z,89.83
2022-09-30T00:47:37.380Z,89.83
2022-09-30T00:50:25.212Z,90.46
2022-09-30T00:53:40.016Z,90.52
2022-09-30T00:56:10.481Z,90.85
2022-09-30T00:58:47.124Z,90.88
2022-09-30T01:01:15.988Z,91.32
2022-09-30T01:03:50.654Z,90.61
2022-09-30T01:06:19.067Z,90.48
2022-09-30T01:08:48.328Z,90.95
2022-09-30T01:11:17.749Z,90.65
2022-09-30T01:13:47.211Z,90.23
2022-09-30T01:16:22.901Z,89.74
2022-09-30T01:19:27.560Z,90.21
2022-09-30T01:22:08.588Z,90.45
2022-09-30T01:24:50.567Z,90.27
2022-09-30T01:27:38.415Z,90.11
2022-09-30T01:30:35.962Z,89.92
2022-09-30T01:33:37.445Z,89.69
2022-09-30T01:36:31.138Z,89.74
2022-09-30T01:39:25.786Z,89.17
2022-09-30T01:41:53.068Z,88.82
2022-09-30T01:44:29.906Z,88.63
2022-09-30T01:47:09.716Z,86.95
2022-09-30T01:49:43.945Z,87.14
2022-09-30T01:52:44.866Z,87.63
2022-09-30T01:55:21.458Z,87.93
2022-09-30T01:57:56.723Z,87.63
2022-09-30T02:00:24.629Z,87.27
2022-09-30T02:03:06.463Z,88.00
2022-09-30T02:06:16.162Z,87.50
2022-09-30T02:09:07.052Z,87.88
2022-09-30T02:11:36.309Z,87.65
2022-09-30T02:14:24.211Z,88.08
2022-09-30T02:16:56.795Z,88.71
2022-09-30T02:19:38.183Z,88.36
2022-09-30T02:22:11.984Z,89.80
2022-09-30T02:24:39.909Z,89.49
2022-09-30T02:27:12.137Z,89.33
2022-09-30T02:29:42.400Z,89.95
2022-09-30T02:32:16.862Z,89.86
2022-09-30T02:34:51.145Z,90.23
2022-09-30T02:37:22.164Z,90.26
2022-09-30T02:39:54.379Z,88.74
2022-09-30T02:42:28.597Z,89.84
2022-09-30T02:45:08.691Z,90.35
2022-09-30T02:47:38.494Z,90.96
2022-09-30T02:50:44.267Z,90.45
2022-09-30T02:53:18.973Z,91.01
2022-09-30T02:56:17.231Z,91.61
2022-09-30T02:58:49.729Z,91.76
2022-09-30T03:01:17.370Z,92.11
2022-09-30T03:04:00.125Z,92.53
2022-09-30T03:06:32.596Z,93.07
2022-09-30T03:08:59.410Z,93.57
2022-09-30T03:11:29.135Z,93.89
2022-09-30T03:14:19.307Z,93.78
2022-09-30T03:16:58.102Z,94.08
2022-09-30T03:19:27.814Z,93.59
2022-09-30T03:22:00.444Z,94.03
2022-09-30T03:24:42.701Z,94.88
2022-09-30T03:27:37.586Z,95.52
2022-09-30T03:30:22.121Z,95.47
2022-09-30T03:32:57.016Z,95.35
2022-09-30T03:35:55.001Z,94.29
2022-09-30T03:38:30.697Z,95.04
2022-09-30T03:41:09.210Z,95.41
2022-09-30T03:43:43.824Z,96.05
2022-09-30T03:46:19.094Z,94.75
2022-09-30T03:48:47.197Z,94.07
2022-09-30T03:51:13.968Z,95.54
2022-09-30T03:53:44.400Z,96.31
2022-09-30T03:56:11.121Z,96.69
2022-09-30T03:58:45.566Z,97.02
2022-09-30T04:01:21.465Z,97.17
2022-09-30T04:03:52.780Z,96.91
2022-09-30T04:06:21.907Z,97.32
2022-09-30T04:08:49.193Z,97.56
2022-09-30T04:11:16.328Z,97.71
2022-09-30T04:13:45.580Z,98.08
2022-09-30T04:16:16.893Z,98.23
2022-09-30T04:18:44.458Z,98.24
2022-09-30T04:21:16.012Z,98.96
2022-09-30T04:23:45.100Z,98.94
2022-09-30T04:26:20.086Z,98.70
2022-09-30T04:28:52.555Z,98.85
2022-09-30T04:31:20.733Z,98.64
2022-09-30T04:33:50.738Z,98.62
2022-09-30T04:36:20.612Z,98.50
2022-09-30T04:38:47.397Z,98.88
2022-09-30T04:41:17.687Z,98.56
2022-09-30T04:43:47.859Z,98.47
2022-09-30T04:46:16.402Z,98.20
2022-09-30T04:48:45.886Z,98.05
2022-09-30T04:52:17.069Z,98.31
2022-09-30T04:59:22.652Z,98.13
2022-09-30T05:01:52.286Z,98.49
2022-09-30T05:01:56.358Z,98.23
2022-09-30T05:04:21.917Z,98.20
2022-09-30T05:06:49.701Z,95.93
2022-09-30T05:09:18.997Z,95.13
2022-09-30T05:11:45.582Z,94.54
2022-09-30T05:14:12.399Z,95.63
2022-09-30T05:16:41.384Z,96.53
2022-09-30T05:19:10.345Z,96.75
2022-09-30T05:21:37.047Z,97.08
2022-09-30T05:24:04.341Z,96.87
2022-09-30T05:26:30.985Z,97.67
2022-09-30T05:28:58.120Z,97.40
2022-09-30T05:31:27.327Z,97.60
2022-09-30T05:33:58.069Z,97.51
2022-09-30T05:36:25.492Z,97.15
2022-09-30T05:38:55.121Z,96.98
2022-09-30T05:41:22.168Z,96.89
2022-09-30T05:43:52.092Z,96.77
2022-09-30T05:46:21.327Z,94.36
2022-09-30T05:48:52.638Z,94.80
2022-09-30T05:51:19.492Z,95.26
2022-09-30T05:53:48.315Z,95.57
2022-09-30T05:56:15.621Z,96.23
2022-09-30T05:58:42.470Z,96.60
2022-09-30T06:01:14.562Z,94.39
2022-09-30T06:03:43.322Z,94.94
2022-09-30T06:06:13.686Z,95.64
2022-09-30T06:08:41.414Z,96.11
2022-09-30T06:11:11.988Z,95.14
2022-09-30T06:13:39.768Z,96.22
2022-09-30T06:16:09.703Z,96.61
2022-09-30T06:18:41.485Z,97.42
2022-09-30T06:21:11.325Z,97.83
2022-09-30T06:23:38.279Z,98.44
2022-09-30T06:26:06.557Z,96.86
2022-09-30T06:28:35.813Z,96.91
2022-09-30T06:31:06.673Z,97.54
2022-09-30T06:33:37.832Z,98.64
2022-09-30T06:36:09.009Z,99.19
2022-09-30T06:38:37.528Z,99.36
2022-09-30T06:41:04.842Z,99.41
2022-09-30T06:43:41.942Z,99.31
2022-09-30T06:46:27.472Z,100.00
2022-09-30T06:49:09.065Z,99.16
2022-09-30T06:51:39.245Z,98.74
2022-09-30T06:54:05.914Z,99.42
2022-09-30T06:56:32.662Z,99.69
2022-09-30T06:59:01.867Z,99.96
2022-09-30T07:01:32.399Z,100.00
2022-09-30T07:03:59.133Z,100.00
2022-09-30T07:06:26.468Z,100.00
2022-09-30T07:08:56.840Z,100.00
2022-09-30T07:11:26.113Z,100.00
2022-09-30T07:13:57.564Z,100.00
2022-09-30T07:16:26.492Z,100.00
2022-09-30T07:18:53.943Z,100.00
2022-09-30T07:21:25.165Z,100.00
2022-09-30T07:23:53.266Z,100.00
2022-09-30T07:26:22.738Z,100.00
2022-09-30T07:28:52.559Z,100.00
2022-09-30T07:31:35.276Z,100.00
2022-09-30T07:34:07.031Z,100.00
2022-09-30T07:36:35.658Z,100.00
2022-09-30T07:39:06.713Z,100.00
2022-09-30T07:41:36.601Z,100.00
2022-09-30T07:44:07.602Z,100.00
2022-09-30T07:46:35.535Z,100.00
2022-09-30T07:49:04.353Z,100.00
2022-09-30T07:51:34.405Z,100.00
2022-09-30T07:54:05.829Z,100.00
2022-09-30T07:57:05.017Z,100.00
2022-09-30T07:59:28.440Z,100.00
2022-09-30T08:01:55.795Z,100.00
2022-09-30T08:04:23.596Z,100.00
2022-09-30T08:06:53.593Z,99.91
2022-09-30T08:09:27.037Z,100.00
2022-09-30T08:11:54.657Z,100.00
2022-09-30T08:14:23.784Z,100.00
2022-09-30T08:16:51.162Z,100.00
2022-09-30T08:19:23.162Z,98.09
2022-09-30T08:21:50.525Z,98.50
2022-09-30T08:24:19.478Z,98.96
2022-09-30T08:26:48.872Z,98.46
2022-09-30T08:29:20.781Z,98.53
2022-09-30T08:31:57.297Z,98.49
2022-09-30T08:34:24.245Z,98.89
2022-09-30T08:36:57.833Z,99.12
2022-09-30T08:39:28.572Z,97.86
2022-09-30T08:42:37.442Z,97.95
2022-09-30T08:45:31.802Z,97.82
2022-09-30T08:48:39.031Z,97.76
2022-09-30T08:51:37.318Z,97.08
2022-09-30T08:54:07.087Z,96.34
2022-09-30T08:56:34.247Z,96.37
2022-09-30T08:59:24.166Z,97.20
2022-09-30T09:01:54.927Z,93.74
2022-09-30T09:04:24.376Z,93.84
2022-09-30T09:06:58.947Z,95.28
2022-09-30T09:09:30.224Z,93.47
2022-09-30T09:12:03.245Z,93.69
2022-09-30T09:14:42.579Z,93.51
2022-09-30T09:17:31.114Z,92.13
2022-09-30T09:20:05.385Z,91.63
2022-09-30T09:22:35.536Z,91.05
2022-09-30T09:25:02.763Z,89.36
2022-09-30T09:28:02.344Z,89.31
2022-09-30T09:30:39.344Z,88.57
2022-09-30T09:33:23.174Z,86.82
2022-09-30T09:36:45.454Z,87.39
2022-09-30T09:39:22.826Z,84.87
2022-09-30T09:42:10.276Z,87.06
2022-09-30T09:44:49.487Z,82.70
2022-09-30T09:47:19.769Z,83.13
2022-09-30T09:49:57.690Z,83.55
2022-09-30T09:53:10.685Z,83.69
2022-09-30T09:55:38.411Z,83.26
2022-09-30T09:58:10.746Z,78.51
2022-09-30T10:00:46.503Z,80.84
2022-09-30T10:03:23.299Z,80.64
2022-09-30T10:06:13.239Z,81.54
2022-09-30T10:08:53.283Z,81.54
2022-09-30T10:11:22.779Z,80.02
2022-09-30T10:13:51.205Z,78.46
2022-09-30T10:16:37.959Z,79.72
2022-09-30T10:19:20.969Z,79.51
2022-09-30T10:21:51.837Z,80.25
2022-09-30T10:24:29.936Z,79.03
2022-09-30T10:26:59.338Z,78.52
2022-09-30T10:29:36.101Z,78.96
2022-09-30T10:32:07.185Z,79.97
2022-09-30T10:34:41.205Z,80.88
2022-09-30T10:37:19.979Z,78.66
2022-09-30T10:40:07.759Z,79.17
2022-09-30T10:42:36.393Z,80.12
2022-09-30T10:45:34.604Z,81.22
2022-09-30T10:48:07.153Z,80.12
2022-09-30T10:50:36.644Z,80.78
2022-09-30T10:53:15.788Z,80.49
2022-09-30T10:55:45.456Z,78.25
2022-09-30T10:58:37.613Z,75.61
2022-09-30T11:01:15.686Z,75.83
2022-09-30T11:04:40.827Z,74.38
2022-09-30T11:07:18.405Z,72.90
2022-09-30T11:10:11.661Z,72.37
2022-09-30T11:13:16.248Z,73.45
2022-09-30T11:15:45.743Z,70.51
2022-09-30T11:18:35.387Z,71.68
2022-09-30T11:21:07.869Z,72.91
2022-09-30T11:23:43.910Z,73.58
2022-09-30T11:26:22.768Z,72.49
2022-09-30T11:29:07.639Z,73.23
2022-09-30T11:31:40.867Z,72.91
2022-09-30T11:34:22.832Z,71.95
2022-09-30T11:36:58.639Z,70.97
2022-09-30T11:39:35.089Z,70.59
2022-09-30T11:42:31.669Z,71.40
2022-09-30T11:45:32.532Z,71.35
2022-09-30T11:48:31.888Z,72.72
2022-09-30T11:51:24.092Z,73.16
2022-09-30T11:54:03.817Z,72.44
2022-09-30T11:56:46.052Z,70.58
2022-09-30T11:59:20.370Z,70.08
2022-09-30T12:01:50.290Z,68.90
2022-09-30T12:04:26.092Z,68.62
2022-09-30T12:07:01.183Z,68.37
2022-09-30T12:10:04.963Z,68.45
2022-09-30T12:12:32.518Z,66.81
2022-09-30T12:15:05.965Z,65.35
2022-09-30T12:17:42.618Z,65.90
2022-09-30T12:20:29.061Z,66.11
2022-09-30T12:23:21.779Z,64.07
2022-09-30T12:25:55.716Z,62.77
2022-09-30T12:29:08.889Z,61.83
2022-09-30T12:31:47.844Z,62.65
2022-09-30T12:34:20.359Z,61.38
2022-09-30T12:37:00.654Z,60.23
2022-09-30T12:39:38.828Z,61.45
2022-09-30T12:42:28.019Z,58.49
2022-09-30T12:45:24.248Z,57.50
2022-09-30T12:47:54.815Z,56.25
2022-09-30T12:50:29.039Z,55.46
2022-09-30T12:53:10.450Z,56.32
2022-09-30T12:55:41.419Z,55.75
2022-09-30T12:58:24.487Z,55.53
2022-09-30T13:01:21.803Z,56.81
2022-09-30T13:04:10.371Z,58.14
2022-09-30T13:06:45.481Z,58.78
2022-09-30T13:09:12.203Z,57.25
2022-09-30T13:11:44.282Z,57.09
2022-09-30T13:14:35.035Z,56.35
2022-09-30T13:17:07.053Z,54.66
2022-09-30T13:19:40.981Z,54.16
2022-09-30T13:22:20.088Z,54.27
2022-09-30T13:25:00.538Z,53.85
2022-09-30T13:27:54.330Z,53.31
2022-09-30T13:30:20.939Z,53.22
2022-09-30T13:33:43.280Z,50.16
2022-09-30T13:36:26.742Z,48.92
2022-09-30T13:39:40.520Z,49.89
2022-09-30T13:42:16.393Z,52.41
2022-09-30T13:45:16.326Z,49.08
2022-09-30T13:47:56.594Z,47.60
2022-09-30T13:50:33.147Z,50.84
2022-09-30T13:53:06.523Z,52.56
2022-09-30T13:55:40.226Z,51.39
2022-09-30T13:58:28.694Z,48.25
2022-09-30T14:01:09.272Z,46.08
2022-09-30T14:03:44.942Z,46.33
2022-09-30T14:06:33.116Z,42.56
2022-09-30T14:09:06.131Z,46.45
2022-09-30T14:11:47.307Z,46.76
2022-09-30T14:14:49.428Z,44.15
2022-09-30T14:17:43.858Z,44.39
2022-09-30T14:20:39.727Z,43.67
2022-09-30T14:23:17.461Z,44.60
2022-09-30T14:26:10.248Z,44.30
2022-09-30T14:28:49.874Z,41.27
2022-09-30T14:31:16.692Z,41.95
2022-09-30T14:33:49.058Z,43.77
2022-09-30T14:36:21.893Z,43.71
2022-09-30T14:39:14.089Z,44.17
2022-09-30T14:41:49.560Z,46.29
2022-09-30T14:44:20.132Z,44.70
2022-09-30T14:46:48.809Z,44.92
2022-09-30T14:49:22.563Z,48.63
2022-09-30T14:51:49.364Z,49.29
2022-09-30T14:54:28.992Z,46.34
2022-09-30T14:56:59.222Z,45.06
2022-09-30T14:59:38.339Z,43.14
2022-09-30T15:02:15.455Z,41.25
2022-09-30T15:04:52.075Z,39.02
2022-09-30T15:07:22.656Z,38.66
2022-09-30T15:09:50.256Z,40.36
2022-09-30T15:12:21.237Z,38.11
2022-09-30T15:14:54.705Z,39.19
2022-09-30T15:17:36.506Z,40.11
2022-09-30T15:20:22.481Z,42.68
2022-09-30T15:22:53.376Z,43.90
2022-09-30T15:25:21.883Z,44.13
2022-09-30T15:27:50.218Z,44.38
2022-09-30T15:30:19.837Z,44.73
2022-09-30T15:32:52.048Z,45.19
2022-09-30T15:35:21.807Z,46.57
2022-09-30T15:37:48.933Z,47.58
2022-09-30T15:40:41.681Z,47.96
2022-09-30T15:43:11.335Z,48.65
2022-09-30T15:45:44.480Z,49.06
2022-09-30T15:48:28.681Z,49.96
2022-09-30T15:51:01.177Z,50.33
2022-09-30T15:53:47.851Z,50.46
2022-09-30T15:56:34.542Z,52.03
2022-09-30T15:59:12.160Z,51.47
2022-09-30T16:01:41.717Z,52.29
2022-09-30T16:04:10.853Z,53.04
2022-09-30T16:07:00.936Z,54.38
2022-09-30T16:09:34.540Z,54.30
2022-09-30T16:12:18.242Z,54.63
2022-09-30T16:15:00.014Z,56.03
2022-09-30T16:17:38.062Z,56.40
2022-09-30T16:20:22.645Z,57.08
2022-09-30T16:22:54.934Z,56.75
2022-09-30T16:25:28.141Z,57.50
2022-09-30T16:28:12.361Z,57.66
2022-09-30T16:30:47.651Z,58.55
2022-09-30T16:33:15.977Z,58.49
2022-09-30T16:35:47.368Z,59.12
2022-09-30T16:38:21.775Z,59.20
2022-09-30T16:40:48.646Z,59.71
2022-09-30T16:43:17.095Z,60.14
2022-09-30T16:45:46.328Z,60.54
2022-09-30T16:48:17.302Z,60.93
2022-09-30T16:50:51.580Z,61.28
2022-09-30T16:53:18.669Z,61.71
2022-09-30T16:55:45.408Z,61.81
2022-09-30T16:58:15.233Z,61.94
2022-09-30T17:00:47.159Z,62.35
2022-09-30T17:03:16.158Z,62.22
2022-09-30T17:05:46.112Z,62.64
2022-09-30T17:08:17.028Z,62.91
2022-09-30T17:10:49.935Z,62.86
2022-09-30T17:13:19.716Z,62.82
2022-09-30T17:15:52.094Z,63.38
2022-09-30T17:18:24.259Z,63.27
2022-09-30T17:20:53.117Z,63.35
2022-09-30T17:23:26.291Z,63.25
2022-09-30T17:25:54.752Z,63.52
2022-09-30T17:28:24.624Z,63.86
2022-09-30T17:30:51.481Z,63.92
2022-09-30T17:33:20.897Z,64.46
2022-09-30T17:36:00.526Z,64.88
2022-09-30T17:38:27.272Z,64.76
2022-09-30T17:41:12.439Z,64.94
2022-09-30T17:43:41.820Z,64.75
2022-09-30T17:46:08.352Z,65.61
2022-09-30T17:48:35.631Z,65.21
2022-09-30T17:51:05.590Z,65.31
2022-09-30T17:53:32.609Z,65.63
2022-09-30T17:56:10.215Z,65.84
2022-09-30T17:58:40.141Z,66.18
2022-09-30T18:01:10.550Z,66.44
2022-09-30T18:03:37.323Z,66.63
2022-09-30T18:06:08.636Z,66.31
2022-09-30T18:08:36.033Z,67.31
2022-09-30T18:11:02.918Z,67.11
2022-09-30T18:13:32.337Z,67.52
2022-09-30T18:16:05.458Z,67.61
2022-09-30T18:18:34.215Z,67.90
2022-09-30T18:21:00.901Z,67.80
2022-09-30T18:23:29.884Z,68.01
2022-09-30T18:25:59.971Z,68.48
2022-09-30T18:28:29.282Z,68.63
2022-09-30T18:30:55.844Z,69.61
2022-09-30T18:33:22.620Z,68.92
2022-09-30T18:35:49.386Z,69.14
2022-09-30T18:38:18.680Z,69.11
2022-09-30T18:40:45.886Z,69.33
2022-09-30T18:43:16.911Z,69.13
2022-09-30T18:45:53.675Z,69.46
2022-09-30T18:48:20.419Z,69.64
2022-09-30T18:50:49.323Z,69.53
2022-09-30T18:53:16.111Z,69.99
2022-09-30T18:55:44.284Z,69.86
2022-09-30T18:58:11.029Z,70.13
2022-09-30T19:00:38.317Z,69.95
2022-09-30T19:03:05.123Z,70.05
2022-09-30T19:05:31.860Z,70.15
2022-09-30T19:07:58.589Z,70.17
2022-09-30T19:10:27.758Z,69.35
2022-09-30T19:12:54.467Z,69.83
2022-09-30T19:15:23.615Z,69.57
2022-09-30T19:17:53.701Z,69.67
2022-09-30T19:20:20.439Z,69.88
2022-09-30T19:22:48.095Z,69.68
2022-09-30T19:25:17.262Z,69.42
2022-09-30T19:27:44.566Z,69.42
2022-09-30T19:30:14.881Z,69.61
2022-09-30T19:32:41.660Z,69.43
2022-09-30T19:35:10.585Z,69.28
2022-09-30T19:37:55.282Z,69.62
2022-09-30T19:40:26.866Z,69.32
2022-09-30T19:42:53.587Z,70.81
2022-09-30T19:45:25.789Z,71.41
2022-09-30T19:47:54.042Z,71.49
2022-09-30T19:50:20.721Z,71.46
2022-09-30T19:52:56.098Z,71.45
2022-09-30T19:55:26.877Z,71.43
2022-09-30T19:57:53.749Z,71.96
2022-09-30T20:00:22.739Z,71.52
2022-09-30T20:02:52.690Z,71.56
2022-09-30T20:05:19.482Z,71.75
2022-09-30T20:07:51.231Z,72.10
2022-09-30T20:10:18.435Z,71.91
2022-09-30T20:12:45.746Z,72.15
2022-09-30T20:15:30.963Z,72.37
2022-09-30T20:17:58.339Z,72.05
2022-09-30T20:20:37.301Z,72.16
2022-09-30T20:23:04.322Z,71.97
2022-09-30T20:25:36.319Z,72.13
2022-09-30T20:28:09.139Z,72.40
2022-09-30T20:30:48.292Z,72.57
2022-09-30T20:33:19.682Z,72.44
2022-09-30T20:35:47.226Z,72.70
2022-09-30T20:38:17.450Z,72.91
2022-09-30T20:40:44.655Z,72.92
2022-09-30T20:43:11.353Z,72.56
2022-09-30T20:45:41.141Z,73.02
2022-09-30T20:48:08.434Z,73.53
2022-09-30T20:50:38.443Z,73.51
2022-09-30T20:53:14.040Z,73.39
2022-09-30T20:55:44.619Z,72.78
2022-09-30T20:58:12.680Z,73.10
2022-09-30T21:00:40.969Z,73.22
2022-09-30T21:03:12.266Z,72.80
2022-09-30T21:05:41.402Z,72.92
2022-09-30T21:08:10.106Z,73.47
2022-09-30T21:10:38.683Z,73.32
2022-09-30T21:13:10.518Z,73.38
2022-09-30T21:15:40.477Z,73.28
2022-09-30T21:18:07.380Z,73.89
2022-09-30T21:20:36.302Z,74.17
2022-09-30T21:23:03.934Z,74.22
2022-09-30T21:25:31.929Z,73.92
2022-09-30T21:27:58.772Z,73.57
2022-09-30T21:30:27.090Z,74.08
2022-09-30T21:32:56.769Z,73.92
2022-09-30T21:35:28.247Z,73.84
2022-09-30T21:37:54.940Z,73.89
2022-09-30T21:40:23.905Z,74.18
2022-09-30T21:42:53.107Z,74.79
2022-09-30T21:45:22.000Z,75.20
2022-09-30T21:47:51.144Z,75.28
2022-09-30T21:50:17.695Z,76.44
2022-09-30T21:52:44.357Z,76.58
2022-09-30T21:55:12.531Z,76.62
2022-09-30T21:57:39.235Z,76.84
2022-09-30T22:00:06.100Z,76.76
2022-09-30T22:02:40.783Z,76.88
2022-09-30T22:05:08.021Z,77.06
2022-09-30T22:07:34.982Z,76.91
2022-09-30T22:10:09.021Z,77.42
2022-09-30T22:12:38.267Z,77.82
2022-09-30T22:15:05.015Z,78.08
2022-09-30T22:17:31.756Z,77.83
2022-09-30T22:20:01.098Z,77.59
2022-09-30T22:22:30.532Z,78.57
2022-09-30T22:24:57.172Z,78.88
2022-09-30T22:27:24.871Z,78.78
2022-09-30T22:29:51.510Z,78.95
2022-09-30T22:32:18.412Z,79.16
2022-09-30T22:35:03.497Z,78.82
2022-09-30T22:37:48.734Z,79.39
2022-09-30T22:40:15.403Z,79.53
2022-09-30T22:42:47.940Z,79.79
2022-09-30T22:45:17.059Z,79.79
2022-09-30T22:47:43.750Z,78.67
2022-09-30T22:50:10.444Z,78.85
2022-09-30T22:52:37.087Z,79.77
2022-09-30T22:55:04.139Z,80.07
2022-09-30T22:57:31.064Z,80.12
2022-09-30T23:00:00.023Z,80.09
2022-09-30T23:02:26.813Z,80.52
2022-09-30T23:04:59.013Z,80.79
2022-09-30T23:07:25.803Z,80.14
2022-09-30T23:09:57.568Z,80.37
2022-09-30T23:12:29.950Z,80.13
2022-09-30T23:14:57.533Z,80.10
2022-09-30T23:17:25.464Z,80.05
2022-09-30T23:19:54.634Z,79.72
2022-09-30T23:22:21.288Z,79.41
2022-09-30T23:24:50.173Z,79.56
2022-09-30T23:27:16.872Z,80.15
2022-09-30T23:29:43.528Z,79.77
2022-09-30T23:32:10.307Z,79.78
2022-09-30T23:34:39.433Z,79.69
2022-09-30T23:37:06.139Z,79.11
2022-09-30T23:39:38.119Z,79.45
2022-09-30T23:42:04.834Z,79.24
2022-09-30T23:44:31.540Z,79.13
2022-09-30T23:47:16.632Z,79.31
2022-09-30T23:49:47.740Z,79.13
2022-09-30T23:52:17.815Z,79.39
2022-09-30T23:54:46.884Z,79.01
2022-09-30T23:57:13.608Z,78.59
2022-09-30T23:59:42.602Z,78.68
